sensor_id;sensor_type;location;lat;lon;timestamp;temperature;humidity
43047;DHT22;28672;49.358;8.780;2022-09-09T00:00:20;14.20;99.90
43047;DHT22;28672;49.358;8.780;2022-09-09T00:03:04;14.20;99.90
43047;DHT22;28672;49.358;8.780;2022-09-09T00:05:40;14.20;99.90
43047;DHT22;28672;49.358;8.780;2022-09-09T00:08:15;14.20;99.90
43047;DHT22;28672;49.358;8.780;2022-09-09T00:10:44;14.20;99.90
43047;DHT22;28672;49.358;8.780;2022-09-09T00:13:32;14.10;99.90
43047;DHT22;28672;49.358;8.780;2022-09-09T00:16:21;14.10;99.90
43047;DHT22;28672;49.358;8.780;2022-09-09T00:19:10;14.10;99.90
43047;DHT22;28672;49.358;8.780;2022-09-09T00:22:08;14.10;99.90
43047;DHT22;28672;49.358;8.780;2022-09-09T00:27:41;14.10;99.90
43047;DHT22;28672;49.358;8.780;2022-09-09T00:32:39;14.20;99.90
43047;DHT22;28672;49.358;8.780;2022-09-09T00:35:31;14.20;99.90
43047;DHT22;28672;49.358;8.780;2022-09-09T00:38:01;14.20;99.90
43047;DHT22;28672;49.358;8.780;2022-09-09T00:40:34;14.30;99.90
43047;DHT22;28672;49.358;8.780;2022-09-09T00:48:34;14.20;99.90
43047;DHT22;28672;49.358;8.780;2022-09-09T00:51:11;14.30;99.90
43047;DHT22;28672;49.358;8.780;2022-09-09T00:54:01;14.30;99.90
43047;DHT22;28672;49.358;8.780;2022-09-09T00:56:38;14.30;99.90
43047;DHT22;28672;49.358;8.780;2022-09-09T01:01:36;14.40;99.90
43047;DHT22;28672;49.358;8.780;2022-09-09T01:04:06;14.40;99.90
43047;DHT22;28672;49.358;8.780;2022-09-09T01:06:38;14.40;99.90
43047;DHT22;28672;49.358;8.780;2022-09-09T01:17:17;14.30;99.90
43047;DHT22;28672;49.358;8.780;2022-09-09T01:27:51;14.30;99.90
43047;DHT22;28672;49.358;8.780;2022-09-09T01:30:18;14.40;99.90
43047;DHT22;28672;49.358;8.780;2022-09-09T01:32:54;14.40;99.90
43047;DHT22;28672;49.358;8.780;2022-09-09T01:38:04;14.30;99.90
43047;DHT22;28672;49.358;8.780;2022-09-09T01:40:31;14.40;99.90
43047;DHT22;28672;49.358;8.780;2022-09-09T01:42:57;14.30;99.90
43047;DHT22;28672;49.358;8.780;2022-09-09T01:45:23;14.30;99.90
43047;DHT22;28672;49.358;8.780;2022-09-09T01:47:50;14.20;99.90
43047;DHT22;28672;49.358;8.780;2022-09-09T01:50:17;14.30;99.90
43047;DHT22;28672;49.358;8.780;2022-09-09T01:52:44;14.30;99.90
43047;DHT22;28672;49.358;8.780;2022-09-09T01:55:11;14.30;99.90
43047;DHT22;28672;49.358;8.780;2022-09-09T01:58:00;14.30;99.90
43047;DHT22;28672;49.358;8.780;2022-09-09T02:00:29;14.30;99.90
43047;DHT22;28672;49.358;8.780;2022-09-09T02:06:04;14.30;99.90
43047;DHT22;28672;49.358;8.780;2022-09-09T02:08:33;14.30;99.90
43047;DHT22;28672;49.358;8.780;2022-09-09T02:11:13;14.30;99.90
43047;DHT22;28672;49.358;8.780;2022-09-09T02:13:40;14.30;99.90
43047;DHT22;28672;49.358;8.780;2022-09-09T02:16:26;14.30;99.90
43047;DHT22;28672;49.358;8.780;2022-09-09T02:19:00;14.20;99.90
43047;DHT22;28672;49.358;8.780;2022-09-09T02:21:29;14.20;99.90
43047;DHT22;28672;49.358;8.780;2022-09-09T02:23:57;14.20;99.90
43047;DHT22;28672;49.358;8.780;2022-09-09T02:26:23;14.20;99.90
43047;DHT22;28672;49.358;8.780;2022-09-09T02:28:53;14.20;99.90
43047;DHT22;28672;49.358;8.780;2022-09-09T02:31:22;14.20;99.90
43047;DHT22;28672;49.358;8.780;2022-09-09T02:33:57;14.30;99.90
43047;DHT22;28672;49.358;8.780;2022-09-09T02:36:27;14.20;99.90
43047;DHT22;28672;49.358;8.780;2022-09-09T02:38:55;14.30;99.90
43047;DHT22;28672;49.358;8.780;2022-09-09T02:41:28;14.20;99.90
43047;DHT22;28672;49.358;8.780;2022-09-09T02:43:56;14.20;99.90
43047;DHT22;28672;49.358;8.780;2022-09-09T02:49:06;14.20;99.90
43047;DHT22;28672;49.358;8.780;2022-09-09T02:51:50;14.20;99.90
43047;DHT22;28672;49.358;8.780;2022-09-09T02:54:31;14.20;99.90
43047;DHT22;28672;49.358;8.780;2022-09-09T02:57:24;14.20;99.90
43047;DHT22;28672;49.358;8.780;2022-09-09T02:59:49;14.20;99.90
43047;DHT22;28672;49.358;8.780;2022-09-09T03:02:15;14.20;99.90
43047;DHT22;28672;49.358;8.780;2022-09-09T03:04:41;14.20;99.90
43047;DHT22;28672;49.358;8.780;2022-09-09T03:07:10;14.20;99.90
43047;DHT22;28672;49.358;8.780;2022-09-09T03:09:35;14.20;99.90
43047;DHT22;28672;49.358;8.780;2022-09-09T03:12:01;14.20;99.90
43047;DHT22;28672;49.358;8.780;2022-09-09T03:14:27;14.20;99.90
43047;DHT22;28672;49.358;8.780;2022-09-09T03:16:53;14.10;99.90
43047;DHT22;28672;49.358;8.780;2022-09-09T03:19:19;14.10;99.90
43047;DHT22;28672;49.358;8.780;2022-09-09T03:21:46;14.00;99.90
43047;DHT22;28672;49.358;8.780;2022-09-09T03:24:12;14.00;99.90
43047;DHT22;28672;49.358;8.780;2022-09-09T03:26:39;14.00;99.90
43047;DHT22;28672;49.358;8.780;2022-09-09T03:29:06;14.00;99.90
43047;DHT22;28672;49.358;8.780;2022-09-09T03:31:33;14.00;99.90
43047;DHT22;28672;49.358;8.780;2022-09-09T03:33:59;14.00;99.90
43047;DHT22;28672;49.358;8.780;2022-09-09T03:36:26;13.90;99.90
43047;DHT22;28672;49.358;8.780;2022-09-09T03:38:52;13.90;99.90
43047;DHT22;28672;49.358;8.780;2022-09-09T03:41:18;13.90;99.90
43047;DHT22;28672;49.358;8.780;2022-09-09T03:43:44;13.90;99.90
43047;DHT22;28672;49.358;8.780;2022-09-09T03:46:10;13.90;99.90
43047;DHT22;28672;49.358;8.780;2022-09-09T03:48:35;13.80;99.90
43047;DHT22;28672;49.358;8.780;2022-09-09T03:51:01;13.80;99.90
43047;DHT22;28672;49.358;8.780;2022-09-09T03:53:28;13.80;99.90
43047;DHT22;28672;49.358;8.780;2022-09-09T03:55:55;13.80;99.90
43047;DHT22;28672;49.358;8.780;2022-09-09T03:58:23;13.80;99.90
43047;DHT22;28672;49.358;8.780;2022-09-09T04:01:00;13.80;99.90
43047;DHT22;28672;49.358;8.780;2022-09-09T04:03:27;13.80;99.90
43047;DHT22;28672;49.358;8.780;2022-09-09T04:05:53;13.80;99.90
43047;DHT22;28672;49.358;8.780;2022-09-09T04:08:21;13.80;99.90
43047;DHT22;28672;49.358;8.780;2022-09-09T04:10:48;13.80;99.90
43047;DHT22;28672;49.358;8.780;2022-09-09T04:13:15;13.80;99.90
43047;DHT22;28672;49.358;8.780;2022-09-09T04:15:42;13.90;99.90
43047;DHT22;28672;49.358;8.780;2022-09-09T04:18:08;13.90;99.90
43047;DHT22;28672;49.358;8.780;2022-09-09T04:20:34;13.90;99.90
43047;DHT22;28672;49.358;8.780;2022-09-09T04:23:00;14.00;99.90
43047;DHT22;28672;49.358;8.780;2022-09-09T04:25:26;14.00;99.90
43047;DHT22;28672;49.358;8.780;2022-09-09T04:27:55;14.10;99.90
43047;DHT22;28672;49.358;8.780;2022-09-09T04:30:21;14.10;99.90
43047;DHT22;28672;49.358;8.780;2022-09-09T04:32:46;14.00;99.90
43047;DHT22;28672;49.358;8.780;2022-09-09T04:35:12;14.10;99.90
43047;DHT22;28672;49.358;8.780;2022-09-09T04:37:37;14.00;99.90
43047;DHT22;28672;49.358;8.780;2022-09-09T04:40:05;14.00;99.90
43047;DHT22;28672;49.358;8.780;2022-09-09T04:42:37;14.00;99.90
43047;DHT22;28672;49.358;8.780;2022-09-09T04:45:03;14.00;99.90
43047;DHT22;28672;49.358;8.780;2022-09-09T04:47:28;14.00;99.90
43047;DHT22;28672;49.358;8.780;2022-09-09T04:49:54;14.00;99.90
43047;DHT22;28672;49.358;8.780;2022-09-09T04:52:20;14.00;99.90
43047;DHT22;28672;49.358;8.780;2022-09-09T04:54:46;14.00;99.90
43047;DHT22;28672;49.358;8.780;2022-09-09T04:57:12;14.00;99.90
43047;DHT22;28672;49.358;8.780;2022-09-09T04:59:37;14.00;99.90
43047;DHT22;28672;49.358;8.780;2022-09-09T05:02:04;14.10;99.90
43047;DHT22;28672;49.358;8.780;2022-09-09T05:04:30;14.10;99.90
43047;DHT22;28672;49.358;8.780;2022-09-09T05:06:55;14.10;99.90
43047;DHT22;28672;49.358;8.780;2022-09-09T05:09:21;14.10;99.90
43047;DHT22;28672;49.358;8.780;2022-09-09T05:11:46;14.10;99.90
43047;DHT22;28672;49.358;8.780;2022-09-09T05:14:12;14.10;99.90
43047;DHT22;28672;49.358;8.780;2022-09-09T05:16:37;14.10;99.90
43047;DHT22;28672;49.358;8.780;2022-09-09T05:19:03;14.00;99.90
43047;DHT22;28672;49.358;8.780;2022-09-09T05:21:29;14.10;99.90
43047;DHT22;28672;49.358;8.780;2022-09-09T05:23:56;14.10;99.90
43047;DHT22;28672;49.358;8.780;2022-09-09T05:26:22;14.20;99.90
43047;DHT22;28672;49.358;8.780;2022-09-09T05:28:48;14.30;99.90
43047;DHT22;28672;49.358;8.780;2022-09-09T05:31:15;14.30;99.90
43047;DHT22;28672;49.358;8.780;2022-09-09T05:33:42;14.40;99.90
43047;DHT22;28672;49.358;8.780;2022-09-09T05:36:11;14.40;99.90
43047;DHT22;28672;49.358;8.780;2022-09-09T05:38:40;14.40;99.90
43047;DHT22;28672;49.358;8.780;2022-09-09T05:41:07;14.40;99.90
43047;DHT22;28672;49.358;8.780;2022-09-09T05:43:33;14.50;99.90
43047;DHT22;28672;49.358;8.780;2022-09-09T05:46:02;14.50;99.90
43047;DHT22;28672;49.358;8.780;2022-09-09T05:48:29;14.60;99.90
43047;DHT22;28672;49.358;8.780;2022-09-09T05:50:55;14.60;99.90
43047;DHT22;28672;49.358;8.780;2022-09-09T05:53:20;14.70;99.90
43047;DHT22;28672;49.358;8.780;2022-09-09T05:55:46;14.70;99.90
43047;DHT22;28672;49.358;8.780;2022-09-09T05:58:13;14.70;99.90
43047;DHT22;28672;49.358;8.780;2022-09-09T06:00:39;14.90;99.90
43047;DHT22;28672;49.358;8.780;2022-09-09T06:03:05;15.20;99.90
43047;DHT22;28672;49.358;8.780;2022-09-09T06:05:30;15.30;99.90
43047;DHT22;28672;49.358;8.780;2022-09-09T06:07:56;15.30;99.90
43047;DHT22;28672;49.358;8.780;2022-09-09T06:10:22;15.20;99.90
43047;DHT22;28672;49.358;8.780;2022-09-09T06:12:47;15.20;99.90
43047;DHT22;28672;49.358;8.780;2022-09-09T06:15:13;15.10;99.90
43047;DHT22;28672;49.358;8.780;2022-09-09T06:17:39;15.20;99.90
43047;DHT22;28672;49.358;8.780;2022-09-09T06:20:05;15.20;99.90
43047;DHT22;28672;49.358;8.780;2022-09-09T06:22:30;15.20;99.90
43047;DHT22;28672;49.358;8.780;2022-09-09T06:24:56;15.20;99.90
43047;DHT22;28672;49.358;8.780;2022-09-09T06:27:22;15.20;99.90
43047;DHT22;28672;49.358;8.780;2022-09-09T06:29:47;15.40;99.90
43047;DHT22;28672;49.358;8.780;2022-09-09T06:32:13;15.40;99.90
43047;DHT22;28672;49.358;8.780;2022-09-09T06:34:39;15.50;99.90
43047;DHT22;28672;49.358;8.780;2022-09-09T06:37:05;15.50;99.90
43047;DHT22;28672;49.358;8.780;2022-09-09T06:39:31;15.70;99.90
43047;DHT22;28672;49.358;8.780;2022-09-09T06:41:57;15.80;99.90
43047;DHT22;28672;49.358;8.780;2022-09-09T06:44:24;16.10;99.90
43047;DHT22;28672;49.358;8.780;2022-09-09T06:46:52;16.30;99.90
43047;DHT22;28672;49.358;8.780;2022-09-09T06:49:17;16.40;99.90
43047;DHT22;28672;49.358;8.780;2022-09-09T06:51:43;16.50;99.90
43047;DHT22;28672;49.358;8.780;2022-09-09T06:54:09;16.70;99.90
43047;DHT22;28672;49.358;8.780;2022-09-09T06:56:37;16.70;99.90
43047;DHT22;28672;49.358;8.780;2022-09-09T06:59:05;16.80;99.90
43047;DHT22;28672;49.358;8.780;2022-09-09T07:01:35;16.80;99.90
43047;DHT22;28672;49.358;8.780;2022-09-09T07:04:02;16.80;99.90
43047;DHT22;28672;49.358;8.780;2022-09-09T07:06:31;17.00;99.90
43047;DHT22;28672;49.358;8.780;2022-09-09T07:08:59;17.10;99.90
43047;DHT22;28672;49.358;8.780;2022-09-09T07:11:28;17.20;99.90
43047;DHT22;28672;49.358;8.780;2022-09-09T07:13:54;17.30;99.90
43047;DHT22;28672;49.358;8.780;2022-09-09T07:16:21;17.40;99.90
43047;DHT22;28672;49.358;8.780;2022-09-09T07:18:50;17.50;99.90
43047;DHT22;28672;49.358;8.780;2022-09-09T07:21:16;17.60;99.90
43047;DHT22;28672;49.358;8.780;2022-09-09T07:23:42;17.70;99.90
43047;DHT22;28672;49.358;8.780;2022-09-09T07:26:12;17.80;99.90
43047;DHT22;28672;49.358;8.780;2022-09-09T07:28:39;18.00;99.90
43047;DHT22;28672;49.358;8.780;2022-09-09T07:31:05;18.40;99.90
43047;DHT22;28672;49.358;8.780;2022-09-09T07:33:33;18.70;99.90
43047;DHT22;28672;49.358;8.780;2022-09-09T07:36:08;19.00;99.90
43047;DHT22;28672;49.358;8.780;2022-09-09T07:38:39;19.20;99.90
43047;DHT22;28672;49.358;8.780;2022-09-09T07:41:08;19.50;99.90
43047;DHT22;28672;49.358;8.780;2022-09-09T07:43:38;19.60;99.90
43047;DHT22;28672;49.358;8.780;2022-09-09T07:46:04;19.50;99.90
43047;DHT22;28672;49.358;8.780;2022-09-09T07:48:31;19.90;99.90
43047;DHT22;28672;49.358;8.780;2022-09-09T07:51:24;20.10;99.90
43047;DHT22;28672;49.358;8.780;2022-09-09T07:53:59;20.30;99.90
43047;DHT22;28672;49.358;8.780;2022-09-09T07:56:27;20.30;99.90
43047;DHT22;28672;49.358;8.780;2022-09-09T07:58:54;20.00;99.90
43047;DHT22;28672;49.358;8.780;2022-09-09T08:01:31;20.10;99.90
43047;DHT22;28672;49.358;8.780;2022-09-09T08:04:02;20.30;99.90
43047;DHT22;28672;49.358;8.780;2022-09-09T08:06:34;20.30;99.90
43047;DHT22;28672;49.358;8.780;2022-09-09T08:09:00;19.90;99.90
43047;DHT22;28672;49.358;8.780;2022-09-09T08:11:27;20.00;99.90
43047;DHT22;28672;49.358;8.780;2022-09-09T08:13:54;20.00;99.90
43047;DHT22;28672;49.358;8.780;2022-09-09T08:16:25;20.30;99.90
43047;DHT22;28672;49.358;8.780;2022-09-09T08:18:51;20.60;99.90
43047;DHT22;28672;49.358;8.780;2022-09-09T08:21:23;20.70;99.90
43047;DHT22;28672;49.358;8.780;2022-09-09T08:23:51;21.20;99.90
43047;DHT22;28672;49.358;8.780;2022-09-09T08:26:19;21.50;99.90
43047;DHT22;28672;49.358;8.780;2022-09-09T08:28:48;21.30;99.90
43047;DHT22;28672;49.358;8.780;2022-09-09T08:31:18;21.90;99.90
43047;DHT22;28672;49.358;8.780;2022-09-09T08:33:44;22.30;99.90
43047;DHT22;28672;49.358;8.780;2022-09-09T08:36:15;22.40;99.90
43047;DHT22;28672;49.358;8.780;2022-09-09T08:38:41;22.70;99.90
43047;DHT22;28672;49.358;8.780;2022-09-09T08:42:05;22.90;99.90
43047;DHT22;28672;49.358;8.780;2022-09-09T08:44:14;22.80;99.90
43047;DHT22;28672;49.358;8.780;2022-09-09T08:57:54;19.50;99.90
43047;DHT22;28672;49.358;8.780;2022-09-09T09:00:21;18.90;99.90
43047;DHT22;28672;49.358;8.780;2022-09-09T09:05:56;18.60;99.90
43047;DHT22;28672;49.358;8.780;2022-09-09T09:08:35;18.70;99.90
43047;DHT22;28672;49.358;8.780;2022-09-09T09:11:04;18.90;99.90
43047;DHT22;28672;49.358;8.780;2022-09-09T09:13:45;19.00;99.90
43047;DHT22;28672;49.358;8.780;2022-09-09T09:18:43;19.40;99.90
43047;DHT22;28672;49.358;8.780;2022-09-09T09:21:39;19.70;99.90
43047;DHT22;28672;49.358;8.780;2022-09-09T09:24:19;19.90;99.90
43047;DHT22;28672;49.358;8.780;2022-09-09T09:26:45;20.10;99.90
43047;DHT22;28672;49.358;8.780;2022-09-09T09:29:14;20.10;99.90
43047;DHT22;28672;49.358;8.780;2022-09-09T09:31:47;19.90;99.90
43047;DHT22;28672;49.358;8.780;2022-09-09T09:34:14;20.30;99.90
43047;DHT22;28672;49.358;8.780;2022-09-09T09:36:45;20.60;99.90
43047;DHT22;28672;49.358;8.780;2022-09-09T09:39:26;20.80;99.90
43047;DHT22;28672;49.358;8.780;2022-09-09T09:41:52;20.80;99.90
43047;DHT22;28672;49.358;8.780;2022-09-09T09:44:26;21.10;99.90
43047;DHT22;28672;49.358;8.780;2022-09-09T09:46:53;21.20;99.90
43047;DHT22;28672;49.358;8.780;2022-09-09T09:49:19;21.40;99.90
43047;DHT22;28672;49.358;8.780;2022-09-09T09:51:44;21.70;99.90
43047;DHT22;28672;49.358;8.780;2022-09-09T09:56:39;21.90;99.90
43047;DHT22;28672;49.358;8.780;2022-09-09T09:59:05;22.00;99.90
43047;DHT22;28672;49.358;8.780;2022-09-09T10:01:38;22.30;99.90
43047;DHT22;28672;49.358;8.780;2022-09-09T10:04:21;22.50;99.90
43047;DHT22;28672;49.358;8.780;2022-09-09T10:06:49;22.60;99.90
43047;DHT22;28672;49.358;8.780;2022-09-09T10:09:30;22.40;99.90
43047;DHT22;28672;49.358;8.780;2022-09-09T10:12:20;22.40;99.90
43047;DHT22;28672;49.358;8.780;2022-09-09T10:17:41;22.40;99.90
43047;DHT22;28672;49.358;8.780;2022-09-09T10:22:51;22.10;99.90
43047;DHT22;28672;49.358;8.780;2022-09-09T10:27:54;21.60;99.90
43047;DHT22;28672;49.358;8.780;2022-09-09T10:33:13;21.60;99.90
43047;DHT22;28672;49.358;8.780;2022-09-09T10:35:52;21.30;99.90
43047;DHT22;28672;49.358;8.780;2022-09-09T10:38:42;21.10;99.90
43047;DHT22;28672;49.358;8.780;2022-09-09T10:44:06;21.80;99.90
43047;DHT22;28672;49.358;8.780;2022-09-09T10:46:49;21.80;99.90
43047;DHT22;28672;49.358;8.780;2022-09-09T10:49:51;21.90;99.90
43047;DHT22;28672;49.358;8.780;2022-09-09T10:52:54;22.10;99.90
43047;DHT22;28672;49.358;8.780;2022-09-09T10:55:32;22.50;99.90
43047;DHT22;28672;49.358;8.780;2022-09-09T10:58:03;22.50;99.90
43047;DHT22;28672;49.358;8.780;2022-09-09T11:00:45;22.50;99.90
43047;DHT22;28672;49.358;8.780;2022-09-09T11:03:21;22.70;99.90
43047;DHT22;28672;49.358;8.780;2022-09-09T11:06:12;22.40;99.90
43047;DHT22;28672;49.358;8.780;2022-09-09T11:08:39;22.50;99.90
43047;DHT22;28672;49.358;8.780;2022-09-09T11:11:32;22.60;99.90
43047;DHT22;28672;49.358;8.780;2022-09-09T11:14:19;22.60;99.90
43047;DHT22;28672;49.358;8.780;2022-09-09T11:16:56;22.70;99.90
43047;DHT22;28672;49.358;8.780;2022-09-09T11:19:36;22.80;99.90
43047;DHT22;28672;49.358;8.780;2022-09-09T11:22:18;22.60;99.90
43047;DHT22;28672;49.358;8.780;2022-09-09T11:24:54;23.00;99.90
43047;DHT22;28672;49.358;8.780;2022-09-09T11:27:37;22.50;99.90
43047;DHT22;28672;49.358;8.780;2022-09-09T11:38:23;22.30;99.90
43047;DHT22;28672;49.358;8.780;2022-09-09T11:41:01;22.60;99.90
43047;DHT22;28672;49.358;8.780;2022-09-09T11:43:43;22.70;99.90
43047;DHT22;28672;49.358;8.780;2022-09-09T11:46:10;22.80;99.90
43047;DHT22;28672;49.358;8.780;2022-09-09T11:48:38;23.00;99.90
43047;DHT22;28672;49.358;8.780;2022-09-09T11:51:29;22.80;99.90
43047;DHT22;28672;49.358;8.780;2022-09-09T11:54:25;22.90;99.90
43047;DHT22;28672;49.358;8.780;2022-09-09T11:56:48;22.80;99.90
43047;DHT22;28672;49.358;8.780;2022-09-09T11:59:24;23.20;99.90
43047;DHT22;28672;49.358;8.780;2022-09-09T12:01:58;23.20;99.90
43047;DHT22;28672;49.358;8.780;2022-09-09T12:07:00;23.20;99.90
43047;DHT22;28672;49.358;8.780;2022-09-09T12:12:36;23.10;99.90
43047;DHT22;28672;49.358;8.780;2022-09-09T12:15:19;22.90;99.90
43047;DHT22;28672;49.358;8.780;2022-09-09T12:20:20;22.70;99.90
43047;DHT22;28672;49.358;8.780;2022-09-09T12:23:13;23.10;99.90
43047;DHT22;28672;49.358;8.780;2022-09-09T12:29:09;23.50;99.90
43047;DHT22;28672;49.358;8.780;2022-09-09T12:32:02;23.40;99.90
43047;DHT22;28672;49.358;8.780;2022-09-09T12:37:19;23.20;99.90
43047;DHT22;28672;49.358;8.780;2022-09-09T12:39:53;23.00;99.90
43047;DHT22;28672;49.358;8.780;2022-09-09T12:42:21;23.00;99.90
43047;DHT22;28672;49.358;8.780;2022-09-09T12:45:01;22.80;99.90
43047;DHT22;28672;49.358;8.780;2022-09-09T12:47:56;22.60;99.90
43047;DHT22;28672;49.358;8.780;2022-09-09T12:50:28;22.30;99.90
43047;DHT22;28672;49.358;8.780;2022-09-09T12:53:07;22.00;99.90
43047;DHT22;28672;49.358;8.780;2022-09-09T12:55:38;22.10;99.90
43047;DHT22;28672;49.358;8.780;2022-09-09T12:58:05;22.10;99.90
43047;DHT22;28672;49.358;8.780;2022-09-09T13:00:33;22.00;99.90
43047;DHT22;28672;49.358;8.780;2022-09-09T13:03:14;21.90;99.90
43047;DHT22;28672;49.358;8.780;2022-09-09T13:05:41;22.00;99.90
43047;DHT22;28672;49.358;8.780;2022-09-09T13:08:11;22.10;99.90
43047;DHT22;28672;49.358;8.780;2022-09-09T13:10:50;22.00;99.90
43047;DHT22;28672;49.358;8.780;2022-09-09T13:13:29;21.90;99.90
43047;DHT22;28672;49.358;8.780;2022-09-09T13:15:59;21.80;99.90
43047;DHT22;28672;49.358;8.780;2022-09-09T13:18:37;21.80;99.90
43047;DHT22;28672;49.358;8.780;2022-09-09T13:21:05;21.70;99.90
43047;DHT22;28672;49.358;8.780;2022-09-09T13:23:33;21.50;99.90
43047;DHT22;28672;49.358;8.780;2022-09-09T13:26:02;21.60;99.90
43047;DHT22;28672;49.358;8.780;2022-09-09T13:28:30;21.30;99.90
43047;DHT22;28672;49.358;8.780;2022-09-09T13:31:05;21.30;99.90
43047;DHT22;28672;49.358;8.780;2022-09-09T13:33:36;21.00;99.90
43047;DHT22;28672;49.358;8.780;2022-09-09T13:36:09;20.90;99.90
43047;DHT22;28672;49.358;8.780;2022-09-09T13:41:30;20.50;99.90
43047;DHT22;28672;49.358;8.780;2022-09-09T13:43:57;20.20;99.90
43047;DHT22;28672;49.358;8.780;2022-09-09T13:48:58;19.40;99.90
43047;DHT22;28672;49.358;8.780;2022-09-09T13:53:56;18.80;99.90
43047;DHT22;28672;49.358;8.780;2022-09-09T13:56:23;18.60;99.90
43047;DHT22;28672;49.358;8.780;2022-09-09T13:58:48;18.50;99.90
43047;DHT22;28672;49.358;8.780;2022-09-09T14:01:14;18.20;99.90
43047;DHT22;28672;49.358;8.780;2022-09-09T14:03:39;18.20;99.90
43047;DHT22;28672;49.358;8.780;2022-09-09T14:06:05;18.20;99.90
43047;DHT22;28672;49.358;8.780;2022-09-09T14:08:30;18.20;99.90
43047;DHT22;28672;49.358;8.780;2022-09-09T14:11:03;18.20;99.90
43047;DHT22;28672;49.358;8.780;2022-09-09T14:13:28;18.30;99.90
43047;DHT22;28672;49.358;8.780;2022-09-09T14:15:54;18.60;99.90
43047;DHT22;28672;49.358;8.780;2022-09-09T14:18:19;18.80;99.90
43047;DHT22;28672;49.358;8.780;2022-09-09T14:20:45;19.10;99.90
43047;DHT22;28672;49.358;8.780;2022-09-09T14:23:11;19.30;99.90
43047;DHT22;28672;49.358;8.780;2022-09-09T14:25:40;19.40;99.90
43047;DHT22;28672;49.358;8.780;2022-09-09T14:28:08;19.40;99.90
43047;DHT22;28672;49.358;8.780;2022-09-09T14:30:34;19.60;99.90
43047;DHT22;28672;49.358;8.780;2022-09-09T14:33:00;19.60;99.90
43047;DHT22;28672;49.358;8.780;2022-09-09T14:35:26;19.60;99.90
43047;DHT22;28672;49.358;8.780;2022-09-09T14:37:51;19.70;99.90
43047;DHT22;28672;49.358;8.780;2022-09-09T14:40:17;19.90;99.90
43047;DHT22;28672;49.358;8.780;2022-09-09T14:42:42;20.10;99.90
43047;DHT22;28672;49.358;8.780;2022-09-09T14:45:08;20.30;99.90
43047;DHT22;28672;49.358;8.780;2022-09-09T14:47:34;20.30;99.90
43047;DHT22;28672;49.358;8.780;2022-09-09T14:50:00;20.10;99.90
43047;DHT22;28672;49.358;8.780;2022-09-09T14:52:26;20.30;99.90
43047;DHT22;28672;49.358;8.780;2022-09-09T14:54:51;20.50;99.90
43047;DHT22;28672;49.358;8.780;2022-09-09T14:57:17;20.60;99.90
43047;DHT22;28672;49.358;8.780;2022-09-09T14:59:42;20.80;99.90
43047;DHT22;28672;49.358;8.780;2022-09-09T15:02:09;20.90;99.90
43047;DHT22;28672;49.358;8.780;2022-09-09T15:04:34;20.90;99.90
43047;DHT22;28672;49.358;8.780;2022-09-09T15:07:00;20.80;99.90
43047;DHT22;28672;49.358;8.780;2022-09-09T15:09:26;20.70;99.90
43047;DHT22;28672;49.358;8.780;2022-09-09T15:11:51;20.50;99.90
43047;DHT22;28672;49.358;8.780;2022-09-09T15:14:17;20.40;99.90
43047;DHT22;28672;49.358;8.780;2022-09-09T15:16:42;20.30;99.90
43047;DHT22;28672;49.358;8.780;2022-09-09T15:19:08;20.20;99.90
43047;DHT22;28672;49.358;8.780;2022-09-09T15:21:37;20.20;99.90
43047;DHT22;28672;49.358;8.780;2022-09-09T15:24:03;20.20;99.90
43047;DHT22;28672;49.358;8.780;2022-09-09T15:26:29;20.10;99.90
43047;DHT22;28672;49.358;8.780;2022-09-09T15:28:55;20.10;99.90
43047;DHT22;28672;49.358;8.780;2022-09-09T15:31:29;20.00;99.90
43047;DHT22;28672;49.358;8.780;2022-09-09T15:33:56;20.10;99.90
43047;DHT22;28672;49.358;8.780;2022-09-09T15:36:39;20.10;99.90
43047;DHT22;28672;49.358;8.780;2022-09-09T15:39:07;20.00;99.90
43047;DHT22;28672;49.358;8.780;2022-09-09T15:41:34;20.00;99.90
43047;DHT22;28672;49.358;8.780;2022-09-09T15:44:00;20.10;99.90
43047;DHT22;28672;49.358;8.780;2022-09-09T15:46:38;19.90;99.90
43047;DHT22;28672;49.358;8.780;2022-09-09T15:51:33;19.80;99.90
43047;DHT22;28672;49.358;8.780;2022-09-09T15:53:59;19.70;99.90
43047;DHT22;28672;49.358;8.780;2022-09-09T15:56:26;19.60;99.90
43047;DHT22;28672;49.358;8.780;2022-09-09T15:58:53;19.60;99.90
43047;DHT22;28672;49.358;8.780;2022-09-09T16:01:19;19.40;99.90
43047;DHT22;28672;49.358;8.780;2022-09-09T16:03:45;19.30;99.90
43047;DHT22;28672;49.358;8.780;2022-09-09T16:06:13;19.20;99.90
43047;DHT22;28672;49.358;8.780;2022-09-09T16:08:41;19.20;99.90
43047;DHT22;28672;49.358;8.780;2022-09-09T16:11:10;19.20;99.90
43047;DHT22;28672;49.358;8.780;2022-09-09T16:13:38;19.30;99.90
43047;DHT22;28672;49.358;8.780;2022-09-09T16:16:07;19.30;99.90
43047;DHT22;28672;49.358;8.780;2022-09-09T16:18:39;19.40;99.90
43047;DHT22;28672;49.358;8.780;2022-09-09T16:21:06;19.70;99.90
43047;DHT22;28672;49.358;8.780;2022-09-09T16:23:36;19.70;99.90
43047;DHT22;28672;49.358;8.780;2022-09-09T16:26:02;19.70;99.90
43047;DHT22;28672;49.358;8.780;2022-09-09T16:28:28;19.60;99.90
43047;DHT22;28672;49.358;8.780;2022-09-09T16:30:53;19.50;99.90
43047;DHT22;28672;49.358;8.780;2022-09-09T16:33:19;19.40;99.90
43047;DHT22;28672;49.358;8.780;2022-09-09T16:35:45;19.20;99.90
43047;DHT22;28672;49.358;8.780;2022-09-09T16:38:11;19.10;99.90
43047;DHT22;28672;49.358;8.780;2022-09-09T16:40:38;19.00;99.90
43047;DHT22;28672;49.358;8.780;2022-09-09T16:43:05;18.80;99.90
43047;DHT22;28672;49.358;8.780;2022-09-09T16:45:32;18.70;99.90
43047;DHT22;28672;49.358;8.780;2022-09-09T16:47:58;18.70;99.90
43047;DHT22;28672;49.358;8.780;2022-09-09T16:50:24;18.50;99.90
43047;DHT22;28672;49.358;8.780;2022-09-09T16:52:51;18.40;99.90
43047;DHT22;28672;49.358;8.780;2022-09-09T16:55:17;18.20;99.90
43047;DHT22;28672;49.358;8.780;2022-09-09T16:57:44;18.10;99.90
43047;DHT22;28672;49.358;8.780;2022-09-09T17:00:10;18.00;99.90
43047;DHT22;28672;49.358;8.780;2022-09-09T17:02:36;17.90;99.90
43047;DHT22;28672;49.358;8.780;2022-09-09T17:05:01;17.70;99.90
43047;DHT22;28672;49.358;8.780;2022-09-09T17:07:27;17.60;99.90
43047;DHT22;28672;49.358;8.780;2022-09-09T17:09:53;17.40;99.90
43047;DHT22;28672;49.358;8.780;2022-09-09T17:12:19;17.30;99.90
43047;DHT22;28672;49.358;8.780;2022-09-09T17:14:45;17.20;99.90
43047;DHT22;28672;49.358;8.780;2022-09-09T17:17:11;17.10;99.90
43047;DHT22;28672;49.358;8.780;2022-09-09T17:19:36;17.00;99.90
43047;DHT22;28672;49.358;8.780;2022-09-09T17:22:02;17.00;99.90
43047;DHT22;28672;49.358;8.780;2022-09-09T17:24:27;17.00;99.90
43047;DHT22;28672;49.358;8.780;2022-09-09T17:26:54;17.00;99.90
43047;DHT22;28672;49.358;8.780;2022-09-09T17:29:20;17.00;99.90
43047;DHT22;28672;49.358;8.780;2022-09-09T17:31:46;17.00;99.90